Portada
METAR-TAF:

METAR-TAF

Aeroports :

Duixanbe, Tadjikistan

latitud: 38-33N, longitud: 068-47E, altitud: 803 m

Observació

L'informe es va fer fa 44 minuts, a les 11:00 UTC
Vent 4 kt del Oest/Sud-Oest
Temperatura 15°C
Humitat 44%
Pressió 1021 hPa
Visibilitat: 7000 m

METAR: UTDD 121100Z 24002MPS 7000 NSC 15/03 Q1021 R09/D NOSIG RMK QFE697/0929

Hora: 16:44 (11:44 UTC)

Pronòstic

L'informe es va fer fa 2 hores i 44 minuts, a les 09:00 UTC
Pronòstic vàlid del 12 a les 10 UTC al 12 a les 22 UTC
Vent 4 kt amb direcció variable
Visibilitat: 6000 m
Escasses núvols a una alçada de 6000 ft
Núvols disperses a una alçada de 13000 ft
Temporalment
l' 12 a les 10 UTC al 12 a les 14 UTC
Vent 10 kt del Oest
Evolucionant progressivament
l' 12 a les 14 UTC al 12 a les 16 UTC
Visibilitat: 3100 m
boirina, fum

TAF: UTDD 120900Z 1210/1222 VRB02MPS 6000 FEW060 SCT130 TEMPO 1210/1214 27005MPS BECMG 1214/1216 3100 BR FU

Observacions i pronòstics meteorològics de més de 4000 aeroports (METAR i TAF).

Les estacions disponibles són els punts grocs i vermells al mapa.

Posi el ratolí al punt desitjat per veure el nom de l'estació.

Feu clic per veure les observacions i els pronòstics meteorològics.

Per canviar el mapa: feu clic els botons verds amb una creu de color negre per apropar; al botó verd amb un guió per allunyar la imatge; o en les fletxes verdes per a mapes adjacents.


METAR-TAF: